Time;durP1;ratioP1;P1;durP2;ratioP2;P2;SDS_P1;SDS_P2;PMS_P1;PMS_P2;Temp;Humidity;BMP_temperature;BMP_pressure;BME280_temperature;BME280_humidity;BME280_pressure;Samples;Min_cycle;Max_cycle;Signal;HPM_P1;HPM_P2
2023/08/23 00:01:51;;;;;;;8.65;7.28;;;;;;;23.40;74.58;65454.78;5070247;28;20212;-53
2023/08/23 00:04:19;;;;;;;8.27;6.78;;;;;;;23.32;75.90;65449.59;5070274;28;20224;-54
2023/08/23 00:06:45;;;;;;;8.13;7.32;;;;;;;23.33;75.34;65450.16;5070428;28;20725;-55
2023/08/23 00:09:11;;;;;;;10.07;7.82;;;;;;;23.22;76.24;65435.38;5052429;28;20277;-55
2023/08/23 00:11:37;;;;;;;11.30;7.68;;;;;;;23.21;76.63;65436.84;5070323;28;20662;-55
2023/08/23 00:14:03;;;;;;;8.80;7.90;;;;;;;23.38;75.83;65455.13;5070284;28;20204;-55
2023/08/23 00:16:28;;;;;;;8.23;7.30;;;;;;;23.34;76.44;65451.25;5070140;28;20216;-55
2023/08/23 00:18:54;;;;;;;10.35;7.97;;;;;;;23.30;76.80;65444.78;5070208;28;20351;-53
2023/08/23 00:21:20;;;;;;;8.32;7.53;;;;;;;23.19;77.48;65432.06;5068608;28;20212;-53
2023/08/23 00:23:45;;;;;;;9.00;7.70;;;;;;;23.19;77.94;65434.63;5052042;28;20211;-53
2023/08/23 00:26:11;;;;;;;7.93;7.13;;;;;;;23.23;77.37;65439.06;5069904;28;20205;-56
2023/08/23 00:28:38;;;;;;;8.77;7.45;;;;;;;23.16;77.74;65429.28;5069828;28;20200;-54
2023/08/23 00:31:04;;;;;;;10.05;8.20;;;;;;;23.16;79.83;65431.28;5069764;28;20258;-56
2023/08/23 00:33:30;;;;;;;9.45;8.02;;;;;;;22.98;80.24;65414.47;5052018;28;20208;-63
2023/08/23 00:35:56;;;;;;;10.15;8.07;;;;;;;23.09;79.83;65421.50;5069692;28;20586;-53
2023/08/23 00:38:21;;;;;;;8.15;7.43;;;;;;;22.95;80.00;65411.16;5069688;28;20257;-53
2023/08/23 00:40:47;;;;;;;8.82;8.00;;;;;;;23.12;77.84;65426.84;5069749;28;20189;-55
2023/08/23 00:43:12;;;;;;;7.97;7.07;;;;;;;22.90;79.71;65403.06;5069800;28;20220;-51
2023/08/23 00:45:41;;;;;;;8.00;7.20;;;;;;;22.91;80.06;65404.16;5052095;28;20196;-52
2023/08/23 00:48:09;;;;;;;10.07;8.00;;;;;;;22.94;79.93;65410.06;5069636;28;20295;-51
2023/08/23 00:50:35;;;;;;;7.85;7.15;;;;;;;23.06;79.39;65418.19;5069689;28;20220;-54
2023/08/23 00:53:02;;;;;;;11.52;7.63;;;;;;;23.14;79.02;65426.50;5069662;28;20232;-51
2023/08/23 00:55:28;;;;;;;10.20;7.60;;;;;;;23.14;78.80;65429.63;5069717;28;20201;-51
2023/08/23 00:57:55;;;;;;;7.82;7.13;;;;;;;22.98;78.55;65411.91;5070001;28;20212;-52
2023/08/23 01:00:21;;;;;;;8.10;7.30;;;;;;;22.94;78.21;65407.47;5069591;28;20197;-51
2023/08/23 01:02:46;;;;;;;11.00;7.18;;;;;;;22.86;78.46;65398.63;5069631;28;20224;-50
2023/08/23 01:05:12;;;;;;;8.32;7.40;;;;;;;22.79;79.27;65393.44;5069667;28;20204;-55
2023/08/23 01:07:48;;;;;;;8.60;7.57;;;;;;;22.64;80.25;65373.69;5069429;28;20208;-52
2023/08/23 01:10:25;;;;;;;7.97;7.25;;;;;;;22.67;79.66;65377.00;5069721;28;20180;-51
2023/08/23 01:13:17;;;;;;;11.95;8.20;;;;;;;22.72;79.26;65383.13;5069796;28;20204;-51
2023/08/23 01:15:44;;;;;;;11.43;8.30;;;;;;;22.62;80.14;65369.47;5069479;28;20212;-50
2023/08/23 01:18:10;;;;;;;8.52;7.57;;;;;;;22.64;79.32;65376.28;5069763;28;20208;-52
2023/08/23 01:20:37;;;;;;;8.20;7.30;;;;;;;22.62;80.20;65369.47;5069508;28;20635;-51
2023/08/23 01:23:14;;;;;;;9.02;7.95;;;;;;;22.72;79.01;65385.69;5069260;28;20217;-51
2023/08/23 01:25:44;;;;;;;11.45;8.02;;;;;;;22.67;79.33;65375.00;5051320;28;20208;-51
2023/08/23 01:28:09;;;;;;;8.95;7.80;;;;;;;22.80;78.30;65391.41;5069463;28;20251;-52
2023/08/23 01:30:37;;;;;;;8.32;7.53;;;;;;;22.89;77.53;65407.06;5069407;28;20205;-51
2023/08/23 01:33:32;;;;;;;8.63;7.65;;;;;;;22.68;78.21;65381.25;5070816;28;20208;-51
2023/08/23 01:36:10;;;;;;;8.45;7.60;;;;;;;22.81;78.05;65390.50;5053798;28;20220;-52
2023/08/23 01:38:38;;;;;;;8.95;7.82;;;;;;;22.84;78.24;65396.41;5071594;28;20207;-51
2023/08/23 01:41:05;;;;;;;8.20;7.40;;;;;;;22.82;78.47;65391.06;5071447;28;20212;-51
2023/08/23 01:43:31;;;;;;;8.13;7.32;;;;;;;22.80;79.28;65388.84;5071375;28;20205;-51
2023/08/23 01:45:56;;;;;;;8.32;7.47;;;;;;;22.77;79.11;65388.63;5071677;28;20647;-51
2023/08/23 01:48:22;;;;;;;7.75;6.97;;;;;;;22.85;78.46;65400.06;5072524;28;20288;-51
2023/08/23 01:50:50;;;;;;;8.30;6.82;;;;;;;22.88;79.62;65400.84;5037801;28;20208;-51
2023/08/23 01:53:15;;;;;;;8.80;7.93;;;;;;;23.14;83.12;65429.06;5054422;28;20215;-51
2023/08/23 01:55:40;;;;;;;11.18;7.85;;;;;;;23.10;79.02;65422.63;5072393;28;20188;-51
2023/08/23 01:58:06;;;;;;;9.52;7.90;;;;;;;23.18;78.31;65433.50;5072630;28;20232;-51
2023/08/23 02:00:31;;;;;;;8.60;7.65;;;;;;;23.14;78.43;65429.63;5072352;28;20197;-51
2023/08/23 02:02:57;;;;;;;9.32;8.43;;;;;;;23.20;77.88;65433.72;5072114;28;20213;-51
2023/08/23 02:05:23;;;;;;;8.40;7.18;;;;;;;23.29;78.48;65445.69;5072456;28;20207;-53
2023/08/23 02:07:48;;;;;;;8.93;8.02;;;;;;;23.22;77.60;65435.91;5072113;28;20559;-50
2023/08/23 02:10:14;;;;;;;8.90;7.80;;;;;;;23.01;78.05;65412.09;5072198;28;20207;-51
2023/08/23 02:12:40;;;;;;;11.38;7.88;;;;;;;22.88;79.39;65398.25;5071940;28;20262;-51
2023/08/23 02:15:06;;;;;;;7.97;7.15;;;;;;;22.87;80.33;65397.16;5072164;28;20201;-55
2023/08/23 02:17:32;;;;;;;8.57;7.70;;;;;;;22.80;81.10;65391.97;5071806;28;20216;-52
2023/08/23 02:19:58;;;;;;;9.93;7.90;;;;;;;22.65;81.83;65372.78;5071966;28;20578;-51
2023/08/23 02:22:23;;;;;;;9.07;7.72;;;;;;;22.69;82.09;65379.22;5053928;28;20645;-54
2023/08/23 02:24:48;;;;;;;8.82;7.97;;;;;;;22.72;81.90;65380.53;5071877;28;20188;-52
2023/08/23 02:27:14;;;;;;;9.55;8.45;;;;;;;22.78;80.81;65389.19;5072059;28;20659;-51
2023/08/23 02:29:39;;;;;;;10.32;8.52;;;;;;;22.73;80.30;65381.09;5071936;28;20181;-52
2023/08/23 02:32:05;;;;;;;9.85;8.18;;;;;;;22.66;80.55;65373.34;5071832;28;20675;-55
2023/08/23 02:34:30;;;;;;;9.52;7.97;;;;;;;22.74;79.40;65385.34;5071777;28;20192;-55
2023/08/23 02:36:56;;;;;;;8.55;7.75;;;;;;;22.57;80.73;65363.91;5071811;28;20218;-51
2023/08/23 02:39:21;;;;;;;8.50;7.60;;;;;;;22.48;81.40;65356.53;5071814;28;20196;-53
2023/08/23 02:41:46;;;;;;;8.48;7.68;;;;;;;22.54;81.50;65361.13;5071906;28;20290;-51
2023/08/23 02:44:12;;;;;;;9.10;8.23;;;;;;;22.61;80.38;65367.78;5070464;28;20277;-51
2023/08/23 02:46:38;;;;;;;9.73;7.97;;;;;;;22.65;80.24;65375.34;5071698;28;20205;-52
2023/08/23 02:49:03;;;;;;;9.38;8.20;;;;;;;22.52;81.67;65363.53;5071529;28;20197;-58
2023/08/23 02:51:29;;;;;;;9.05;8.15;;;;;;;22.54;81.39;65363.69;5071493;28;20240;-50
2023/08/23 02:53:54;;;;;;;9.10;8.20;;;;;;;22.46;81.61;65354.31;5071541;28;20628;-52
2023/08/23 02:56:19;;;;;;;9.32;8.40;;;;;;;22.60;80.47;65369.28;5053351;28;20213;-51
2023/08/23 02:58:45;;;;;;;9.68;8.40;;;;;;;22.56;80.84;65365.38;5071339;28;20197;-50
2023/08/23 03:01:10;;;;;;;10.77;7.82;;;;;;;22.60;80.32;65367.25;5071114;28;20583;-51
2023/08/23 03:03:36;;;;;;;9.85;8.85;;;;;;;22.51;82.17;65362.41;5071232;28;20216;-51
2023/08/23 03:06:01;;;;;;;9.32;8.23;;;;;;;22.41;83.49;65346.19;5071235;28;20185;-52
2023/08/23 03:08:27;;;;;;;9.48;8.48;;;;;;;22.41;83.16;65346.19;5053105;28;20219;-54
2023/08/23 03:11:04;;;;;;;9.77;8.77;;;;;;;22.34;83.58;65341.56;5071044;28;20224;-58
2023/08/23 03:13:30;;;;;;;9.43;8.38;;;;;;;22.34;83.75;65343.59;5071170;28;20208;-52
2023/08/23 03:15:56;;;;;;;9.73;8.75;;;;;;;22.33;83.71;65340.47;5070955;28;20201;-52
2023/08/23 03:18:21;;;;;;;9.98;8.65;;;;;;;22.33;82.71;65339.91;5071098;28;20699;-51
2023/08/23 03:20:50;;;;;;;8.98;7.97;;;;;;;22.20;83.54;65325.53;5071132;28;20678;-51
2023/08/23 03:23:17;;;;;;;12.90;8.55;;;;;;;22.32;82.36;65338.81;5070900;28;20213;-52
2023/08/23 03:25:45;;;;;;;10.45;8.63;;;;;;;22.25;82.60;65331.06;5070992;28;20193;-51
2023/08/23 03:28:11;;;;;;;13.88;8.13;;;;;;;22.29;82.53;65338.03;5070822;28;20200;-51
2023/08/23 03:30:36;;;;;;;12.80;8.75;;;;;;;22.21;83.89;65326.63;5071091;28;20234;-52
2023/08/23 03:33:02;;;;;;;9.63;8.73;;;;;;;22.29;82.84;65336.03;5052887;28;20695;-52
2023/08/23 03:35:28;;;;;;;9.10;8.20;;;;;;;22.20;83.62;65328.09;5070911;28;20200;-52
2023/08/23 03:37:54;;;;;;;9.38;8.38;;;;;;;22.30;82.84;65336.59;5070793;28;20213;-51
2023/08/23 03:40:19;;;;;;;10.88;8.70;;;;;;;22.30;83.13;65339.69;5070735;28;20586;-52
2023/08/23 03:42:45;;;;;;;9.00;7.85;;;;;;;22.30;83.17;65334.03;5070577;28;20244;-52
2023/08/23 03:45:11;;;;;;;11.15;9.02;;;;;;;22.39;82.35;65349.69;5070734;28;20633;-52
2023/08/23 03:47:37;;;;;;;10.23;8.90;;;;;;;22.24;84.53;65333.06;5070530;28;20213;-52
2023/08/23 03:50:03;;;;;;;10.40;8.63;;;;;;;22.22;85.55;65328.28;5070760;28;20582;-51
2023/08/23 03:52:29;;;;;;;13.73;9.77;;;;;;;22.21;85.72;65326.63;5070973;28;20295;-51
2023/08/23 03:54:55;;;;;;;10.48;8.80;;;;;;;22.22;85.54;65327.75;5070219;28;20200;-53
2023/08/23 03:57:20;;;;;;;9.80;8.63;;;;;;;22.19;85.68;65324.41;5070779;28;20208;-51
2023/08/23 03:59:46;;;;;;;11.18;9.00;;;;;;;22.20;85.79;65325.53;5070396;28;20192;-51
2023/08/23 04:02:11;;;;;;;9.75;8.80;;;;;;;22.29;84.69;65332.91;5070428;28;20227;-51
2023/08/23 04:04:36;;;;;;;12.07;8.70;;;;;;;22.25;84.91;65328.47;5070301;28;20211;-52
2023/08/23 04:07:02;;;;;;;9.85;8.80;;;;;;;22.20;85.38;65322.97;5070152;28;20589;-52
2023/08/23 04:09:27;;;;;;;9.43;8.43;;;;;;;22.12;85.91;65317.22;5052267;28;20196;-52
2023/08/23 04:11:53;;;;;;;9.77;8.77;;;;;;;22.14;86.17;65321.47;5070544;28;20590;-52
2023/08/23 04:14:18;;;;;;;10.35;9.30;;;;;;;22.15;86.52;65319.97;5070218;28;20612;-56
2023/08/23 04:16:43;;;;;;;13.02;8.25;;;;;;;22.25;86.18;65331.59;5070303;28;20722;-52
2023/08/23 04:19:09;;;;;;;12.93;9.32;;;;;;;22.24;86.09;65330.50;5070158;28;20205;-51
2023/08/23 04:21:34;;;;;;;9.88;8.88;;;;;;;22.30;85.76;65339.16;5069822;28;20602;-53
2023/08/23 04:24:00;;;;;;;10.85;9.05;;;;;;;22.30;86.12;65337.13;5070349;28;20276;-52
2023/08/23 04:26:25;;;;;;;10.25;8.90;;;;;;;22.31;86.67;65335.13;5070181;28;20623;-52
2023/08/23 04:28:51;;;;;;;10.88;9.00;;;;;;;22.33;87.14;65340.47;5069879;28;20621;-56
2023/08/23 04:31:16;;;;;;;10.75;9.23;;;;;;;22.62;90.06;65372.03;5070103;28;20208;-51
2023/08/23 04:33:43;;;;;;;9.73;8.57;;;;;;;22.89;87.12;65401.94;5070080;28;20193;-55
2023/08/23 04:36:08;;;;;;;14.63;9.25;;;;;;;23.00;85.28;65413.56;5069877;28;20254;-51
2023/08/23 04:38:34;;;;;;;9.60;8.68;;;;;;;23.03;81.03;65417.44;5069906;28;20204;-52
2023/08/23 04:41:04;;;;;;;13.13;9.95;;;;;;;22.94;81.55;65407.47;5069618;28;20204;-53
2023/08/23 04:43:30;;;;;;;11.10;8.85;;;;;;;22.84;82.50;65393.84;5069523;28;20311;-50
2023/08/23 04:45:56;;;;;;;11.15;10.05;;;;;;;22.88;83.23;65400.84;5069777;28;20689;-51
2023/08/23 04:48:23;;;;;;;12.45;9.52;;;;;;;22.92;82.48;65407.28;5070003;28;20189;-51
2023/08/23 04:50:56;;;;;;;12.48;9.60;;;;;;;23.03;80.94;65414.31;5069716;28;20656;-51
2023/08/23 04:53:22;;;;;;;10.55;9.40;;;;;;;22.81;83.08;65395.09;5052728;28;20421;-51
2023/08/23 04:55:48;;;;;;;10.05;9.05;;;;;;;22.88;82.51;65397.69;5069832;28;20177;-52
2023/08/23 04:58:14;;;;;;;11.30;9.13;;;;;;;22.97;81.42;65410.78;5069688;28;20185;-52
2023/08/23 05:00:40;;;;;;;12.02;9.38;;;;;;;22.84;82.28;65393.84;5069765;28;20619;-52
2023/08/23 05:03:06;;;;;;;14.38;9.65;;;;;;;22.69;84.45;65381.78;5051850;28;20691;-52
2023/08/23 05:05:31;;;;;;;11.68;10.48;;;;;;;22.80;85.73;65389.41;5069916;28;20536;-52
2023/08/23 05:07:57;;;;;;;16.50;8.80;;;;;;;23.02;83.77;65415.78;5053224;28;20702;-53
2023/08/23 05:10:22;;;;;;;11.80;9.35;;;;;;;23.04;83.44;65418.00;5073055;28;20196;-52
2023/08/23 05:12:48;;;;;;;10.50;9.40;;;;;;;23.11;84.89;65425.75;5073072;28;20217;-52
2023/08/23 05:15:14;;;;;;;10.65;9.20;;;;;;;23.33;86.17;65448.13;5073132;28;20197;-51
2023/08/23 05:17:39;;;;;;;12.43;10.15;;;;;;;23.51;81.95;65467.53;5072861;28;20208;-53
2023/08/23 05:20:05;;;;;;;11.95;10.20;;;;;;;23.52;82.16;65468.63;5072890;28;20201;-51
2023/08/23 05:22:31;;;;;;;14.73;10.40;;;;;;;23.58;83.04;65472.13;5072811;28;20223;-52
2023/08/23 05:24:56;;;;;;;13.88;11.00;;;;;;;23.65;81.27;65488.19;5073071;28;20237;-52
2023/08/23 05:27:22;;;;;;;16.25;10.90;;;;;;;23.41;85.17;65461.59;5072595;28;20220;-51
2023/08/23 05:29:47;;;;;;;12.90;10.18;;;;;;;23.40;84.59;65454.78;5072652;28;20185;-52
2023/08/23 05:32:13;;;;;;;13.55;10.88;;;;;;;23.45;85.66;65463.44;5073061;28;20212;-52
2023/08/23 05:34:40;;;;;;;13.73;10.02;;;;;;;23.56;84.75;65475.63;5071396;28;20288;-52
2023/08/23 05:37:06;;;;;;;21.33;11.35;;;;;;;23.61;88.73;65480.63;5071995;28;20223;-51
2023/08/23 05:39:32;;;;;;;14.23;11.02;;;;;;;23.62;82.64;65481.72;5073025;28;20308;-52
2023/08/23 05:41:58;;;;;;;13.75;12.07;;;;;;;23.56;81.72;65473.06;5071062;28;20584;-52
2023/08/23 05:44:24;;;;;;;12.27;10.23;;;;;;;23.41;85.76;65459.03;5037555;28;20209;-54
2023/08/23 05:46:49;;;;;;;14.10;10.93;;;;;;;23.59;81.39;65478.41;5054631;28;20205;-54
2023/08/23 05:49:16;;;;;;;13.00;11.02;;;;;;;23.55;85.27;65474.53;5072717;28;20205;-58
2023/08/23 05:51:42;;;;;;;12.40;11.10;;;;;;;23.58;87.19;65477.84;5072698;28;20221;-53
2023/08/23 05:54:07;;;;;;;14.32;11.27;;;;;;;23.91;88.44;65511.28;5072569;28;20197;-55
2023/08/23 05:56:33;;;;;;;12.48;10.55;;;;;;;24.00;85.70;65524.41;5054359;28;20295;-55
2023/08/23 05:58:59;;;;;;;12.38;10.95;;;;;;;24.14;81.67;65537.38;5072439;28;20330;-60
2023/08/23 06:01:24;;;;;;;11.80;10.35;;;;;;;24.13;84.89;65538.28;5072345;28;20248;-54
2023/08/23 06:03:50;;;;;;;16.45;12.32;;;;;;;24.24;82.80;65550.47;5072369;28;20681;-53
2023/08/23 06:06:16;;;;;;;15.20;11.70;;;;;;;24.25;84.13;65551.59;5072580;28;20242;-55
2023/08/23 06:08:41;;;;;;;12.23;10.85;;;;;;;24.47;85.50;65572.84;5072287;28;20634;-54
2023/08/23 06:11:07;;;;;;;13.73;10.73;;;;;;;24.64;83.23;65591.72;5072424;28;20207;-53
2023/08/23 06:13:33;;;;;;;13.48;11.90;;;;;;;24.49;78.61;65577.63;5054168;28;20208;-53
2023/08/23 06:15:59;;;;;;;14.85;11.27;;;;;;;24.28;78.93;65554.91;5054343;28;20330;-53
2023/08/23 06:18:25;;;;;;;21.65;11.23;;;;;;;24.32;78.89;65559.34;5072064;28;20197;-54
2023/08/23 06:20:50;;;;;;;15.30;11.52;;;;;;;24.23;79.22;65549.38;5072163;28;20307;-54
2023/08/23 06:23:16;;;;;;;13.52;12.13;;;;;;;24.18;80.24;65543.81;5054155;28;20213;-53
2023/08/23 06:25:41;;;;;;;12.98;11.65;;;;;;;23.91;80.49;65513.88;5072032;28;20274;-52
2023/08/23 06:28:08;;;;;;;15.13;12.52;;;;;;;23.81;81.01;65502.78;5053722;28;20706;-53
2023/08/23 06:30:37;;;;;;;15.38;11.93;;;;;;;23.83;81.77;65503.00;5072376;28;20207;-53
2023/08/23 06:33:05;;;;;;;18.58;12.65;;;;;;;23.81;81.86;65502.78;5071872;28;20217;-53
2023/08/23 06:35:32;;;;;;;15.32;12.20;;;;;;;23.98;81.46;65521.63;5071734;28;20744;-53
2023/08/23 06:37:58;;;;;;;15.00;11.88;;;;;;;23.92;81.26;65512.41;5071599;28;20258;-53
2023/08/23 06:40:24;;;;;;;18.10;13.30;;;;;;;23.89;80.83;65512.22;5071777;28;20201;-53
2023/08/23 06:42:50;;;;;;;15.38;11.65;;;;;;;23.99;80.41;65520.16;5053835;28;20224;-54
2023/08/23 06:45:16;;;;;;;18.13;11.85;;;;;;;24.05;79.58;65527.41;5071787;28;20276;-53
2023/08/23 06:47:41;;;;;;;14.20;11.05;;;;;;;24.18;78.78;65543.81;5053664;28;20209;-53
2023/08/23 06:50:07;;;;;;;15.73;12.15;;;;;;;24.23;78.70;65551.94;5071571;28;20208;-56
2023/08/23 06:52:34;;;;;;;13.07;11.02;;;;;;;24.36;78.17;65563.78;5071848;28;20217;-53
2023/08/23 06:55:00;;;;;;;12.38;11.02;;;;;;;24.52;77.48;65580.97;5053805;28;20196;-54
2023/08/23 06:57:29;;;;;;;13.55;11.45;;;;;;;24.58;76.23;65588.19;5071449;28;20223;-53
2023/08/23 06:59:58;;;;;;;17.40;11.90;;;;;;;24.51;76.55;65580.41;5071745;28;20196;-53
2023/08/23 07:02:25;;;;;;;13.43;10.75;;;;;;;24.61;76.58;65591.50;5071766;28;20355;-53
2023/08/23 07:04:52;;;;;;;17.73;11.20;;;;;;;24.71;76.10;65600.03;5071663;28;20196;-63
2023/08/23 07:07:22;;;;;;;14.23;11.45;;;;;;;24.84;76.27;65614.47;5053309;28;20220;-56
2023/08/23 07:09:49;;;;;;;13.18;10.90;;;;;;;24.88;75.33;65618.91;5053302;28;20671;-59
2023/08/23 07:12:14;;;;;;;11.90;10.05;;;;;;;24.89;74.47;65622.59;5071456;28;20209;-55
2023/08/23 07:14:40;;;;;;;17.15;11.95;;;;;;;24.93;73.82;65624.44;5053460;28;20271;-52
2023/08/23 07:17:05;;;;;;;14.55;11.90;;;;;;;25.04;73.54;65636.09;5071269;28;20601;-53
2023/08/23 07:19:31;;;;;;;16.13;11.18;;;;;;;25.18;73.48;65651.66;5071213;28;20204;-53
2023/08/23 07:21:58;;;;;;;15.63;11.82;;;;;;;25.27;73.44;65661.09;5053024;28;20278;-53
2023/08/23 07:24:24;;;;;;;14.45;10.57;;;;;;;25.34;73.25;65669.41;5071083;28;20204;-53
2023/08/23 07:26:49;;;;;;;12.77;11.48;;;;;;;25.49;72.92;65685.53;5053568;28;20221;-52
2023/08/23 07:29:16;;;;;;;14.73;10.63;;;;;;;25.80;70.69;65722.50;5071152;28;20201;-55
2023/08/23 07:31:45;;;;;;;17.10;11.80;;;;;;;25.79;71.68;65721.97;5052394;28;20270;-54
2023/08/23 07:34:10;;;;;;;13.00;10.82;;;;;;;26.15;70.17;65758.25;5071154;28;20223;-55
2023/08/23 07:36:44;;;;;;;13.30;10.57;;;;;;;26.40;67.87;65786.03;5053248;28;20686;-61
2023/08/23 07:39:09;;;;;;;13.60;10.25;;;;;;;26.33;68.20;65780.84;5052995;28;20201;-58
2023/08/23 07:41:34;;;;;;;16.63;11.57;;;;;;;26.33;68.00;65775.66;5070697;28;20781;-55
2023/08/23 07:44:00;;;;;;;12.02;10.43;;;;;;;26.42;68.92;65791.38;5070926;28;20631;-54
2023/08/23 07:46:26;;;;;;;16.67;11.10;;;;;;;26.44;68.04;65791.03;5052875;28;20694;-58
2023/08/23 07:48:51;;;;;;;14.18;12.68;;;;;;;26.47;66.63;65794.38;5070850;28;20204;-54
2023/08/23 07:51:17;;;;;;;14.07;11.07;;;;;;;26.87;64.40;65837.72;5070776;28;20215;-56
2023/08/23 07:53:43;;;;;;;14.75;11.25;;;;;;;26.89;65.43;65839.94;5052693;28;20243;-54
2023/08/23 07:56:12;;;;;;;12.98;10.68;;;;;;;26.74;65.04;65823.28;5070744;28;20216;-59
2023/08/23 07:58:38;;;;;;;18.45;12.18;;;;;;;26.83;65.88;65833.28;5070712;28;20220;-55
2023/08/23 08:01:05;;;;;;;14.68;11.05;;;;;;;27.16;64.36;65869.97;5070482;28;20303;-56
2023/08/23 08:03:31;;;;;;;13.95;12.40;;;;;;;27.33;64.02;65888.88;5070476;28;20299;-55
2023/08/23 08:05:56;;;;;;;11.65;10.25;;;;;;;27.28;63.32;65883.84;5070339;28;20287;-55
2023/08/23 08:08:22;;;;;;;15.93;12.00;;;;;;;27.31;63.52;65887.19;5052428;28;20196;-54
2023/08/23 08:10:49;;;;;;;16.77;13.68;;;;;;;27.39;64.71;65895.56;5070449;28;20666;-55
2023/08/23 08:13:14;;;;;;;19.15;13.55;;;;;;;27.60;63.17;65918.34;5070522;28;20211;-55
2023/08/23 08:15:40;;;;;;;15.95;13.02;;;;;;;27.57;63.67;65915.56;5070487;28;20295;-53
2023/08/23 08:18:06;;;;;;;13.35;11.82;;;;;;;27.74;63.06;65934.47;5052245;28;20695;-54
2023/08/23 08:20:31;;;;;;;17.08;11.70;;;;;;;28.11;62.72;65973.06;5070337;28;20341;-56
2023/08/23 08:22:58;;;;;;;16.80;12.10;;;;;;;28.18;62.33;65983.44;5070575;28;20283;-54
2023/08/23 08:25:24;;;;;;;14.98;11.40;;;;;;;28.36;58.98;65999.75;5052775;28;20852;-54
2023/08/23 08:27:52;;;;;;;13.13;11.30;;;;;;;28.51;59.68;66016.44;5070547;28;20299;-55
2023/08/23 08:30:19;;;;;;;17.25;12.10;;;;;;;28.67;59.36;66037.44;5052560;28;20702;-56
2023/08/23 08:32:44;;;;;;;14.00;11.57;;;;;;;28.63;59.47;66032.97;5070493;28;20300;-55
2023/08/23 08:35:10;;;;;;;16.45;12.00;;;;;;;28.74;60.43;66044.66;5070397;28;20339;-55
2023/08/23 08:37:37;;;;;;;17.27;12.55;;;;;;;28.96;59.43;66066.56;5070079;28;20205;-55
2023/08/23 08:40:03;;;;;;;16.10;11.98;;;;;;;29.03;59.07;66074.91;5052205;28;20208;-54
2023/08/23 08:42:29;;;;;;;17.00;11.48;;;;;;;28.99;58.49;66075.09;5071052;28;20216;-55
2023/08/23 08:44:55;;;;;;;15.18;11.18;;;;;;;29.01;57.05;66074.72;5073787;28;20204;-55
2023/08/23 08:47:23;;;;;;;11.32;10.30;;;;;;;29.04;56.27;66078.06;5073630;28;20289;-54
2023/08/23 08:49:48;;;;;;;13.57;12.05;;;;;;;29.08;54.79;66082.53;5073457;28;20205;-55
2023/08/23 08:52:17;;;;;;;14.75;10.27;;;;;;;29.08;54.30;66082.53;5073407;28;20223;-55
2023/08/23 08:54:44;;;;;;;12.68;10.35;;;;;;;29.56;54.05;66133.41;5055457;28;20271;-55
2023/08/23 08:57:11;;;;;;;13.80;11.63;;;;;;;29.72;53.72;66153.28;5073722;28;20212;-55
2023/08/23 08:59:39;;;;;;;22.10;13.77;;;;;;;29.75;53.11;66156.63;5073553;28;20315;-55
2023/08/23 09:02:10;;;;;;;13.82;12.15;;;;;;;29.77;54.09;66156.81;5073180;28;20220;-56
2023/08/23 09:04:39;;;;;;;14.73;10.10;;;;;;;30.27;49.21;66214.00;5055433;28;20192;-56
2023/08/23 09:07:05;;;;;;;12.85;8.40;;;;;;;30.47;49.49;66236.31;5073133;28;20220;-54
2023/08/23 09:09:30;;;;;;;10.88;8.10;;;;;;;30.61;48.02;66252.50;5073325;28;20205;-54
2023/08/23 09:11:56;;;;;;;10.02;8.98;;;;;;;30.85;47.38;66276.13;5073515;28;20208;-56
2023/08/23 09:14:22;;;;;;;11.00;7.85;;;;;;;30.97;43.94;66286.34;5073362;28;20203;-57
2023/08/23 09:16:47;;;;;;;8.68;7.65;;;;;;;31.24;41.89;66319.63;5073359;28;20312;-55
2023/08/23 09:19:14;;;;;;;7.63;6.93;;;;;;;31.30;40.36;66323.13;5072806;28;20638;-55
2023/08/23 09:21:44;;;;;;;7.78;7.03;;;;;;;31.52;40.02;66350.31;5073215;28;20265;-57
2023/08/23 09:24:10;;;;;;;9.25;8.13;;;;;;;31.69;42.67;66371.31;5073034;28;20201;-55
2023/08/23 09:26:36;;;;;;;11.52;7.38;;;;;;;31.93;39.62;66392.91;5054665;28;20217;-53
2023/08/23 09:29:03;;;;;;;10.07;8.05;;;;;;;32.12;39.34;66416.72;5054868;28;20277;-53
2023/08/23 09:31:32;;;;;;;11.27;7.53;;;;;;;32.32;39.43;66435.88;5072971;28;20235;-52
2023/08/23 09:34:00;;;;;;;9.30;7.55;;;;;;;32.45;38.88;66453.00;5054701;28;20230;-53
2023/08/23 09:36:39;;;;;;;8.90;8.00;;;;;;;32.60;39.93;66469.78;5054659;28;20208;-54
2023/08/23 09:39:07;;;;;;;16.70;11.02;;;;;;;32.54;38.62;66463.66;5056002;28;20200;-53
2023/08/23 09:41:40;;;;;;;9.60;7.60;;;;;;;32.60;38.99;66470.34;5072543;28;20216;-53
2023/08/23 09:44:06;;;;;;;8.45;7.60;;;;;;;32.80;40.72;66490.06;5054449;28;20318;-53
2023/08/23 09:46:35;;;;;;;9.95;7.68;;;;;;;33.00;39.33;66517.09;5072533;28;20213;-53
2023/08/23 09:49:05;;;;;;;11.65;7.95;;;;;;;32.98;37.94;66512.25;5072326;28;20211;-53
2023/08/23 09:51:35;;;;;;;12.73;11.45;;;;;;;33.20;38.72;66536.81;5072521;28;20213;-54
2023/08/23 09:54:08;;;;;;;14.63;13.13;;;;;;;33.02;37.72;66519.88;5072054;28;20228;-53
2023/08/23 09:56:36;;;;;;;10.63;8.13;;;;;;;33.29;37.55;66546.31;5072493;28;20209;-55
2023/08/23 09:59:02;;;;;;;8.38;7.35;;;;;;;33.59;37.78;66583.03;5072544;28;20193;-55
2023/08/23 10:01:28;;;;;;;11.13;8.10;;;;;;;33.85;37.22;66606.31;5072414;28;20225;-53
2023/08/23 10:03:54;;;;;;;10.68;7.47;;;;;;;33.86;36.32;66607.97;5072200;28;20610;-53
2023/08/23 10:06:21;;;;;;;8.52;7.72;;;;;;;33.93;37.17;66615.25;5072323;28;20217;-53
2023/08/23 10:08:48;;;;;;;8.68;7.75;;;;;;;34.22;36.51;66652.91;5072237;28;20185;-53
2023/08/23 10:11:14;;;;;;;15.52;11.68;;;;;;;34.26;35.88;66654.75;5054413;28;20209;-53
2023/08/23 10:13:41;;;;;;;9.05;7.40;;;;;;;34.31;35.50;66657.75;5072329;28;20210;-54
2023/08/23 10:16:09;;;;;;;9.55;7.55;;;;;;;34.51;35.23;66682.19;5071458;28;20236;-54
2023/08/23 10:18:35;;;;;;;8.27;7.10;;;;;;;34.68;35.84;66699.13;5070804;28;20239;-55
2023/08/23 10:21:02;;;;;;;8.02;7.25;;;;;;;34.87;34.61;66722.44;5070086;28;20228;-53
2023/08/23 10:23:32;;;;;;;21.13;16.10;;;;;;;34.48;33.60;66682.00;5071541;28;20300;-59
2023/08/23 10:25:57;;;;;;;14.95;8.70;;;;;;;34.02;33.69;66630.53;5071768;28;20580;-53
2023/08/23 10:28:23;;;;;;;15.43;13.50;;;;;;;33.38;35.06;66556.38;5054052;28;20294;-57
2023/08/23 10:30:50;;;;;;;8.10;7.40;;;;;;;33.38;35.82;66556.94;5071815;28;20258;-55
2023/08/23 10:33:18;;;;;;;7.82;7.13;;;;;;;33.10;36.03;66527.69;5072049;28;20269;-54
2023/08/23 10:35:47;;;;;;;8.95;8.13;;;;;;;33.24;36.83;66538.09;5071545;28;20701;-53
2023/08/23 10:38:14;;;;;;;10.70;9.57;;;;;;;33.42;35.75;66558.22;5072203;28;20223;-54
2023/08/23 10:40:43;;;;;;;12.52;7.88;;;;;;;33.96;35.77;66621.19;5071915;28;20221;-54
2023/08/23 10:43:21;;;;;;;8.63;7.93;;;;;;;34.42;34.39;66672.09;5071432;28;20281;-54
2023/08/23 10:46:07;;;;;;;7.95;7.22;;;;;;;34.76;33.90;66709.59;5054673;28;20235;-53
2023/08/23 10:48:34;;;;;;;8.73;7.55;;;;;;;34.34;33.63;66663.72;5071180;28;20303;-54
2023/08/23 10:51:01;;;;;;;10.15;6.25;;;;;;;34.59;34.11;66691.69;5071404;28;20642;-54
2023/08/23 10:53:26;;;;;;;8.57;7.68;;;;;;;34.68;34.89;66699.13;5071464;28;20197;-53
2023/08/23 10:55:52;;;;;;;11.02;8.00;;;;;;;34.45;33.27;66672.84;5071505;28;20638;-54
2023/08/23 10:58:17;;;;;;;8.68;6.72;;;;;;;34.60;33.81;66690.19;5053348;28;20636;-53
2023/08/23 11:00:45;;;;;;;8.68;7.35;;;;;;;34.02;34.75;66625.31;5071313;28;20208;-53
2023/08/23 11:03:12;;;;;;;22.73;9.07;;;;;;;33.15;36.88;66533.84;5071687;28;20212;-54
2023/08/23 11:05:38;;;;;;;17.02;8.43;;;;;;;33.61;36.92;66579.47;5052324;28;20208;-53
2023/08/23 11:08:05;;;;;;;15.00;8.75;;;;;;;33.88;36.73;66611.72;5071359;28;20212;-54
2023/08/23 11:10:31;;;;;;;13.32;8.15;;;;;;;33.88;35.85;66610.22;5071321;28;20200;-51
2023/08/23 11:12:57;;;;;;;8.15;7.20;;;;;;;33.98;36.26;66622.91;5070969;28;20205;-51
2023/08/23 11:15:23;;;;;;;11.75;7.82;;;;;;;34.29;35.65;66660.75;5071173;28;20212;-51
2023/08/23 11:17:49;;;;;;;11.88;7.22;;;;;;;34.11;34.93;66637.44;5071360;28;20204;-49
2023/08/23 11:20:16;;;;;;;11.30;6.47;;;;;;;33.37;35.75;66555.78;5053396;28;20201;-54
2023/08/23 11:22:42;;;;;;;7.82;7.03;;;;;;;33.28;35.85;66542.56;5070535;28;20278;-52